createdAt,value
2018-11-04T00:01:04.292Z,100623.64
2018-11-04T00:03:30.354Z,100624.00
2018-11-04T00:05:56.310Z,100609.53
2018-11-04T00:08:22.300Z,100611.67
2018-11-04T00:10:48.262Z,100606.19
2018-11-04T00:13:14.335Z,100598.10
2018-11-04T00:15:43.684Z,100597.27
2018-11-04T00:18:09.667Z,100596.44
2018-11-04T00:20:35.689Z,100595.11
2018-11-04T00:23:01.669Z,100593.00
2018-11-04T00:25:27.677Z,100590.84
2018-11-04T00:27:53.648Z,100596.44
2018-11-04T00:30:19.654Z,100594.77
2018-11-04T00:32:45.648Z,100598.18
2018-11-04T00:35:11.657Z,100598.67
2018-11-04T00:37:37.725Z,100597.39
2018-11-04T00:40:03.753Z,100594.41
2018-11-04T00:42:29.808Z,100599.52
2018-11-04T00:44:55.820Z,100591.94
2018-11-04T00:47:21.831Z,100591.06
2018-11-04T00:49:47.851Z,100582.20
2018-11-04T00:52:13.933Z,100583.00
2018-11-04T00:54:39.954Z,100582.60
2018-11-04T00:57:05.962Z,100582.48
2018-11-04T00:59:31.963Z,100571.75
2018-11-04T01:01:57.965Z,100579.41
2018-11-04T01:04:23.944Z,100569.63
2018-11-04T01:06:49.961Z,100574.67
2018-11-04T01:09:16.137Z,100570.02
2018-11-04T01:11:42.057Z,100564.08
2018-11-04T01:14:08.097Z,100564.86
2018-11-04T01:16:34.257Z,100558.91
2018-11-04T01:19:00.275Z,100553.91
2018-11-04T01:21:26.270Z,100552.68
2018-11-04T01:23:52.223Z,100548.03
2018-11-04T01:26:18.187Z,100545.83
2018-11-04T01:28:44.141Z,100547.03
2018-11-04T01:31:10.223Z,100541.91
2018-11-04T01:33:36.253Z,100543.16
2018-11-04T01:36:02.281Z,100540.70
2018-11-04T01:38:28.313Z,100539.81
2018-11-04T01:40:54.263Z,100537.22
2018-11-04T01:43:20.240Z,100534.72
2018-11-04T01:45:46.270Z,100531.78
2018-11-04T01:48:12.261Z,100526.36
2018-11-04T01:50:38.262Z,100526.77
2018-11-04T01:53:04.280Z,100521.25
2018-11-04T01:55:30.266Z,100523.39
2018-11-04T01:57:56.241Z,100512.83
2018-11-04T02:00:22.196Z,100514.13
2018-11-04T02:02:48.180Z,100509.46
2018-11-04T02:05:14.170Z,100502.97
2018-11-04T02:07:40.170Z,100498.56
2018-11-04T02:10:06.134Z,100489.61
2018-11-04T02:12:32.145Z,100489.15
2018-11-04T02:14:58.154Z,100480.26
2018-11-04T02:17:24.401Z,100483.25
2018-11-04T02:19:50.405Z,100483.63
2018-11-04T02:22:16.390Z,100481.53
2018-11-04T02:24:42.380Z,100478.98
2018-11-04T02:27:08.356Z,100472.27
2018-11-04T02:29:34.380Z,100468.86
2018-11-04T02:32:00.384Z,100465.77
2018-11-04T02:34:26.427Z,100459.70
2018-11-04T02:36:52.417Z,100450.69
2018-11-04T02:39:18.424Z,100451.28
2018-11-04T02:41:44.417Z,100451.75
2018-11-04T02:44:10.447Z,100445.91
2018-11-04T02:46:36.416Z,100450.13
2018-11-04T02:49:02.419Z,100449.22
2018-11-04T02:51:28.447Z,100450.47
2018-11-04T02:53:54.440Z,100443.33
2018-11-04T02:56:20.423Z,100445.56
2018-11-04T02:58:46.450Z,100446.42
2018-11-04T03:01:12.412Z,100449.83
2018-11-04T03:03:38.430Z,100446.38
2018-11-04T03:06:04.388Z,100446.34
2018-11-04T03:08:30.408Z,100442.08
2018-11-04T03:10:56.410Z,100434.41
2018-11-04T03:13:22.469Z,100430.94
2018-11-04T03:15:48.472Z,100431.31
2018-11-04T03:18:14.455Z,100423.27
2018-11-04T03:20:40.436Z,100426.36
2018-11-04T03:23:06.407Z,100417.42
2018-11-04T03:25:32.366Z,100419.55
2018-11-04T03:27:58.355Z,100414.88
2018-11-04T03:30:24.327Z,100415.72
2018-11-04T03:32:50.308Z,100406.43
2018-11-04T03:35:16.275Z,100406.38
2018-11-04T03:37:42.248Z,100397.84
2018-11-04T03:40:08.250Z,100403.40
2018-11-04T03:42:34.242Z,100397.02
2018-11-04T03:45:00.226Z,100391.52
2018-11-04T03:47:26.173Z,100389.37
2018-11-04T03:49:52.136Z,100391.02
2018-11-04T03:52:18.091Z,100382.96
2018-11-04T03:54:44.044Z,100389.77
2018-11-04T03:57:10.035Z,100386.26
2018-11-04T03:59:35.994Z,100385.03
2018-11-04T04:02:01.941Z,100380.45
2018-11-04T04:04:27.997Z,100369.87
2018-11-04T04:06:53.908Z,100369.39
2018-11-04T04:09:19.869Z,100365.47
2018-11-04T04:11:45.819Z,100361.30
2018-11-04T04:14:11.802Z,100363.88
2018-11-04T04:16:37.778Z,100359.61
2018-11-04T04:19:04.058Z,100360.44
2018-11-04T04:21:30.046Z,100353.95
2018-11-04T04:23:56.058Z,100358.98
2018-11-04T04:26:22.025Z,100353.88
2018-11-04T04:28:47.990Z,100350.52
2018-11-04T04:31:13.963Z,100353.60
2018-11-04T04:33:39.905Z,100350.56
2018-11-04T04:36:05.865Z,100349.72
2018-11-04T04:38:31.813Z,100352.67
2018-11-04T04:40:57.773Z,100347.95
2018-11-04T04:43:23.769Z,100344.97
2018-11-04T04:45:49.793Z,100337.75
2018-11-04T04:48:15.781Z,100339.88
2018-11-04T04:50:41.756Z,100336.05
2018-11-04T04:53:07.768Z,100338.63
2018-11-04T04:55:33.757Z,100328.87
2018-11-04T04:57:59.705Z,100324.06
2018-11-04T05:00:25.680Z,100321.83
2018-11-04T05:02:51.672Z,100318.80
2018-11-04T05:05:17.672Z,100310.34
2018-11-04T05:07:43.632Z,100308.58
2018-11-04T05:10:09.632Z,100304.66
2018-11-04T05:12:35.616Z,100303.34
2018-11-04T05:15:01.589Z,100299.02
2018-11-04T05:17:27.691Z,100288.74
2018-11-04T05:19:53.665Z,100294.77
2018-11-04T05:22:19.640Z,100292.69
2018-11-04T05:24:46.675Z,100300.35
2018-11-04T05:27:12.674Z,100296.95
2018-11-04T05:29:38.661Z,100295.19
2018-11-04T05:32:04.607Z,100293.57
2018-11-04T05:34:30.571Z,100290.25
2018-11-04T05:36:56.574Z,100293.03
2018-11-04T05:39:22.570Z,100298.08
2018-11-04T05:41:48.550Z,100312.02
2018-11-04T05:44:14.587Z,100308.22
2018-11-04T05:49:12.897Z,100304.97
2018-11-04T05:51:38.869Z,100310.92
2018-11-04T05:54:04.844Z,100308.77
2018-11-04T05:56:30.821Z,100314.17
2018-11-04T05:58:56.797Z,100314.63
2018-11-04T06:01:22.825Z,100312.07
2018-11-04T06:03:48.802Z,100312.52
2018-11-04T06:06:14.800Z,100312.55
2018-11-04T06:08:40.772Z,100321.09
2018-11-04T06:11:06.749Z,100318.08
2018-11-04T06:13:32.721Z,100322.31
2018-11-04T06:15:58.686Z,100318.05
2018-11-04T06:18:24.684Z,100321.06
2018-11-04T06:20:50.710Z,100319.73
2018-11-04T06:23:16.672Z,100317.12
2018-11-04T06:25:42.653Z,100314.52
2018-11-04T06:28:08.705Z,100321.80
2018-11-04T06:30:34.715Z,100320.42
2018-11-04T06:33:00.693Z,100322.55
2018-11-04T06:35:26.654Z,100326.34
2018-11-04T06:37:52.604Z,100328.90
2018-11-04T06:40:18.623Z,100322.17
2018-11-04T06:42:44.634Z,100325.18
2018-11-04T06:45:10.618Z,100322.25
2018-11-04T06:47:36.672Z,100327.42
2018-11-04T06:50:02.574Z,100326.48
2018-11-04T06:52:28.567Z,100325.15
2018-11-04T06:54:54.536Z,100316.23
2018-11-04T06:57:20.491Z,100319.62
2018-11-04T06:59:46.510Z,100325.55
2018-11-04T07:02:12.440Z,100320.87
2018-11-04T07:04:38.384Z,100317.44
2018-11-04T07:07:04.353Z,100314.48
2018-11-04T07:09:30.311Z,100313.58
2018-11-04T07:11:56.253Z,100313.55
2018-11-04T07:14:22.259Z,100306.62
2018-11-04T07:16:48.217Z,100306.68
2018-11-04T07:19:14.288Z,100308.81
2018-11-04T07:21:40.298Z,100304.09
2018-11-04T07:24:06.264Z,100308.44
2018-11-04T07:26:32.260Z,100311.91
2018-11-04T07:28:58.198Z,100299.02
2018-11-04T07:31:24.176Z,100311.73
2018-11-04T07:33:50.203Z,100302.45
2018-11-04T07:36:16.157Z,100303.61
2018-11-04T07:38:42.117Z,100303.56
2018-11-04T07:41:08.056Z,100300.88
2018-11-04T07:43:34.022Z,100295.38
2018-11-04T07:46:00.010Z,100297.66
2018-11-04T07:48:25.991Z,100295.07
2018-11-04T07:50:51.955Z,100291.16
2018-11-04T07:53:18.017Z,100284.70
2018-11-04T07:55:44.037Z,100292.70
2018-11-04T07:58:10.068Z,100295.17
2018-11-04T08:00:36.180Z,100304.84
2018-11-04T08:03:02.165Z,100300.61
2018-11-04T08:05:28.184Z,100293.19
2018-11-04T08:07:54.181Z,100293.67
2018-11-04T08:10:20.149Z,100299.58
2018-11-04T08:12:46.136Z,100301.28
2018-11-04T08:15:12.139Z,100298.45
2018-11-04T08:17:38.077Z,100295.02
2018-11-04T08:20:04.056Z,100292.73
2018-11-04T08:22:30.025Z,100293.55
2018-11-04T08:24:55.998Z,100284.60
2018-11-04T08:27:22.003Z,100285.81
2018-11-04T08:29:47.977Z,100278.55
2018-11-04T08:32:13.955Z,100278.80
2018-11-04T08:34:39.956Z,100281.75
2018-11-04T08:37:05.916Z,100283.52
2018-11-04T08:39:31.950Z,100274.91
2018-11-04T08:41:57.945Z,100279.09
2018-11-04T08:44:23.905Z,100272.93
2018-11-04T08:46:49.877Z,100272.01
2018-11-04T08:49:15.857Z,100264.20
2018-11-04T08:51:42.047Z,100254.85
2018-11-04T08:54:08.035Z,100249.74
2018-11-04T08:56:34.014Z,100253.05
2018-11-04T08:58:59.956Z,100241.92
2018-11-04T09:01:25.918Z,100248.64
2018-11-04T09:03:52.045Z,100217.56
2018-11-04T09:06:18.104Z,100253.69
2018-11-04T09:08:44.033Z,100245.30
2018-11-04T09:11:11.010Z,100245.66
2018-11-04T09:13:36.986Z,100241.21
2018-11-04T09:16:02.996Z,100244.94
2018-11-04T09:18:29.006Z,100239.36
2018-11-04T09:20:54.992Z,100235.83
2018-11-04T09:23:20.984Z,100240.24
2018-11-04T09:25:46.963Z,100234.55
2018-11-04T09:28:12.962Z,100240.09
2018-11-04T09:30:40.013Z,100247.57
2018-11-04T09:33:05.978Z,100245.08
2018-11-04T09:35:32.231Z,100240.28
2018-11-04T09:37:58.051Z,100238.00
2018-11-04T09:40:24.051Z,100229.05
2018-11-04T09:42:50.030Z,100236.57
2018-11-04T09:45:16.098Z,100231.95
2018-11-04T09:47:42.106Z,100230.83
2018-11-04T09:50:08.171Z,100226.02
2018-11-04T09:52:34.112Z,100219.55
2018-11-04T09:55:03.476Z,100218.43
2018-11-04T09:57:29.496Z,100207.73
2018-11-04T09:59:55.450Z,100209.81
2018-11-04T10:02:21.447Z,100202.06
2018-11-04T10:04:47.426Z,100201.59
2018-11-04T10:07:13.505Z,100203.73
2018-11-04T10:09:39.396Z,100203.19
2018-11-04T10:14:37.072Z,100189.34
2018-11-04T10:17:08.650Z,100181.12
2018-11-04T10:19:40.184Z,100181.55
2018-11-04T10:22:06.185Z,100177.75
2018-11-04T10:29:35.115Z,100172.80
2018-11-04T10:32:01.120Z,100162.39
2018-11-04T10:34:27.088Z,100154.08
2018-11-04T10:36:53.085Z,100152.80
2018-11-04T10:39:19.062Z,100153.61
2018-11-04T10:41:45.037Z,100153.61
2018-11-04T10:44:11.010Z,100146.28
2018-11-04T10:46:37.013Z,100144.14
2018-11-04T10:49:03.009Z,100139.31
2018-11-04T10:51:28.982Z,100120.84
2018-11-04T10:53:54.946Z,100127.15
2018-11-04T10:56:21.976Z,100120.70
2018-11-04T10:58:47.977Z,100120.32
2018-11-04T11:01:14.009Z,100117.34
2018-11-04T11:03:39.996Z,100118.28
2018-11-04T11:06:06.023Z,100113.88
2018-11-04T11:08:32.007Z,100109.05
2018-11-04T11:10:58.027Z,100105.00
2018-11-04T11:13:23.981Z,100102.44
2018-11-04T11:15:50.010Z,100101.59
2018-11-04T11:18:15.997Z,100098.52
2018-11-04T11:20:42.022Z,100093.02
2018-11-04T11:23:08.126Z,100089.00
2018-11-04T11:25:34.195Z,100085.40
2018-11-04T11:28:00.160Z,100083.55
2018-11-04T11:30:26.138Z,100081.33
2018-11-04T11:32:52.098Z,100080.14
2018-11-04T11:35:18.208Z,100074.72
2018-11-04T11:37:44.230Z,100063.91
2018-11-04T11:40:10.169Z,100063.06
2018-11-04T11:42:36.161Z,100064.69
2018-11-04T11:45:02.322Z,100061.64
2018-11-04T11:47:28.139Z,100058.70
2018-11-04T11:49:54.116Z,100054.02
2018-11-04T11:52:20.083Z,100053.48
2018-11-04T11:54:46.073Z,100049.84
2018-11-04T11:57:12.033Z,100060.19
2018-11-04T11:59:38.098Z,100056.44
2018-11-04T12:02:04.088Z,100062.08
2018-11-04T12:04:30.232Z,100051.41
2018-11-04T12:06:59.391Z,100045.28
2018-11-04T12:09:25.325Z,100044.63
2018-11-04T12:11:51.322Z,100046.09
2018-11-04T12:14:17.316Z,100037.78
2018-11-04T12:16:43.286Z,100029.56
2018-11-04T12:19:09.255Z,100035.72
2018-11-04T12:21:35.217Z,100026.90
2018-11-04T12:24:01.379Z,100028.23
2018-11-04T12:26:30.874Z,100026.42
2018-11-04T12:28:56.876Z,100017.78
2018-11-04T12:31:22.904Z,100010.37
2018-11-04T12:33:48.877Z,100007.48
2018-11-04T12:36:16.003Z,100001.51
2018-11-04T12:38:41.996Z,100010.09
2018-11-04T12:41:08.033Z,100006.83
2018-11-04T12:43:34.021Z,100004.53
2018-11-04T12:45:59.994Z,100003.69
2018-11-04T12:48:25.966Z,100003.36
2018-11-04T12:50:51.976Z,100004.59
2018-11-04T12:53:18.095Z,100007.73
2018-11-04T12:55:44.151Z,100012.69
2018-11-04T12:58:10.417Z,100003.91
2018-11-04T13:00:36.540Z,100007.48
2018-11-04T13:03:02.558Z,100005.48
2018-11-04T13:05:28.538Z,99999.31
2018-11-04T13:07:54.555Z,99999.97
2018-11-04T13:10:20.627Z,99985.83
2018-11-04T13:15:19.001Z,99983.34
2018-11-04T13:17:45.068Z,99983.39
2018-11-04T13:20:11.042Z,99983.19
2018-11-04T13:22:36.996Z,99984.27
2018-11-04T13:25:02.990Z,99979.38
2018-11-04T13:27:29.031Z,99983.13
2018-11-04T13:29:55.031Z,99972.23
2018-11-04T13:32:21.011Z,99965.67
2018-11-04T13:34:47.017Z,99970.11
2018-11-04T13:37:12.979Z,99964.44
2018-11-04T13:39:38.939Z,99964.82
2018-11-04T13:42:04.888Z,99958.19
2018-11-04T13:44:30.848Z,99957.88
2018-11-04T13:46:56.840Z,99961.44
2018-11-04T13:49:22.867Z,99964.34
2018-11-04T13:51:52.431Z,99968.28
2018-11-04T13:54:18.390Z,99963.11
2018-11-04T13:56:44.357Z,99966.74
2018-11-04T13:59:10.401Z,99969.03
2018-11-04T14:01:36.437Z,99970.48
2018-11-04T14:04:02.424Z,99964.88
2018-11-04T14:06:28.406Z,99955.03
2018-11-04T14:08:55.406Z,99956.70
2018-11-04T14:11:21.950Z,99956.31
2018-11-04T14:13:47.894Z,99957.18
2018-11-04T14:16:13.909Z,99958.19
2018-11-04T14:18:39.922Z,99949.22
2018-11-04T14:21:05.880Z,99947.09
2018-11-04T14:23:31.959Z,99955.67
2018-11-04T14:25:57.908Z,99952.47
2018-11-04T14:28:23.920Z,99955.80
2018-11-04T14:30:50.040Z,99943.19
2018-11-04T14:33:15.962Z,99936.52
2018-11-04T14:35:41.957Z,99930.84
2018-11-04T14:38:07.965Z,99934.22
2018-11-04T14:40:33.936Z,99937.47
2018-11-04T14:43:01.980Z,99934.17
2018-11-04T14:45:27.976Z,99930.89
2018-11-04T14:47:54.129Z,99930.79
2018-11-04T14:50:23.212Z,99926.35
2018-11-04T14:52:51.404Z,99931.76
2018-11-04T14:55:17.394Z,99925.63
2018-11-04T14:57:43.423Z,99924.45
2018-11-04T15:00:09.422Z,99922.30
2018-11-04T15:02:35.587Z,99921.50
2018-11-04T15:05:02.542Z,99910.17
2018-11-04T15:07:29.004Z,99908.59
2018-11-04T15:09:55.208Z,99915.61
2018-11-04T15:12:21.581Z,99915.97
2018-11-04T15:14:47.890Z,99916.28
2018-11-04T15:17:14.190Z,99921.72
2018-11-04T15:19:40.508Z,99919.25
2018-11-04T15:22:06.753Z,99913.38
2018-11-04T15:24:32.744Z,99904.05
2018-11-04T15:26:59.721Z,99907.41
2018-11-04T15:29:29.275Z,99908.09
2018-11-04T15:31:56.350Z,99904.58
2018-11-04T15:34:22.526Z,99901.22
2018-11-04T15:36:48.431Z,99897.89
2018-11-04T15:39:14.470Z,99903.83
2018-11-04T15:41:40.561Z,99902.86
2018-11-04T15:44:06.738Z,99901.84
2018-11-04T15:46:33.727Z,99900.19
2018-11-04T15:49:00.765Z,99901.41
2018-11-04T15:51:27.612Z,99897.89
2018-11-04T15:53:53.604Z,99898.30
2018-11-04T15:56:20.640Z,99896.23
2018-11-04T15:58:50.426Z,99896.61
2018-11-04T16:01:17.061Z,99896.59
2018-11-04T16:03:43.112Z,99897.30
2018-11-04T16:06:09.196Z,99896.53
2018-11-04T16:08:35.258Z,99896.53
2018-11-04T16:11:01.305Z,99890.06
2018-11-04T16:13:27.385Z,99887.09
2018-11-04T16:15:55.502Z,99877.63
2018-11-04T16:18:21.704Z,99886.49
2018-11-04T16:20:51.335Z,99892.22
2018-11-04T16:23:17.401Z,99888.70
2018-11-04T16:25:43.525Z,99875.34
2018-11-04T16:30:40.746Z,99876.62
2018-11-04T16:33:07.071Z,99882.97
2018-11-04T16:35:33.137Z,99879.08
2018-11-04T16:38:01.265Z,99872.25
2018-11-04T16:40:29.964Z,99877.91
2018-11-04T16:42:56.063Z,99877.95
2018-11-04T16:47:53.237Z,99877.22
2018-11-04T16:50:19.451Z,99881.06
2018-11-04T16:52:47.517Z,99887.47
2018-11-04T16:55:16.026Z,99878.98
2018-11-04T16:57:42.098Z,99878.98
2018-11-04T17:00:09.534Z,99873.00
2018-11-04T17:02:36.656Z,99872.09
2018-11-04T17:05:02.815Z,99870.86
2018-11-04T17:07:28.888Z,99876.38
2018-11-04T17:09:55.033Z,99879.78
2018-11-04T17:12:21.082Z,99869.23
2018-11-04T17:14:47.169Z,99868.47
2018-11-04T17:17:15.209Z,99866.61
2018-11-04T17:19:42.261Z,99867.89
2018-11-04T17:22:08.283Z,99864.78
2018-11-04T17:24:34.263Z,99862.58
2018-11-04T17:27:00.294Z,99853.30
2018-11-04T17:29:27.374Z,99851.96
2018-11-04T17:31:54.481Z,99847.25
2018-11-04T17:34:20.486Z,99848.06
2018-11-04T17:36:46.454Z,99842.88
2018-11-04T17:39:12.445Z,99837.05
2018-11-04T17:41:42.778Z,99842.50
2018-11-04T17:44:08.883Z,99835.35
2018-11-04T17:46:35.989Z,99832.35
2018-11-04T17:49:01.988Z,99831.45
2018-11-04T17:51:27.965Z,99832.73
2018-11-04T17:53:54.124Z,99823.44
2018-11-04T17:56:20.151Z,99814.03
2018-11-04T17:58:46.219Z,99815.69
2018-11-04T18:01:17.136Z,99818.36
2018-11-04T18:03:44.239Z,99819.76
2018-11-04T18:06:11.220Z,99814.33
2018-11-04T18:08:40.359Z,99811.88
2018-11-04T18:11:09.493Z,99814.94
2018-11-04T18:13:35.607Z,99810.22
2018-11-04T18:16:01.543Z,99816.21
2018-11-04T18:18:27.503Z,99825.70
2018-11-04T18:20:53.494Z,99819.81
2018-11-04T18:23:19.532Z,99824.42
2018-11-04T18:25:45.568Z,99827.93
2018-11-04T18:28:11.610Z,99828.94
2018-11-04T18:30:37.602Z,99839.30
2018-11-04T18:33:03.623Z,99830.03
2018-11-04T18:35:29.730Z,99826.98
2018-11-04T18:37:55.722Z,99829.75
2018-11-04T18:40:21.764Z,99822.06
2018-11-04T18:42:47.837Z,99826.13
2018-11-04T18:45:14.603Z,99834.66
2018-11-04T18:47:41.941Z,99824.16
2018-11-04T18:50:08.091Z,99830.45
2018-11-04T18:52:35.179Z,99824.47
2018-11-04T18:55:01.207Z,99822.17
2018-11-04T18:57:27.317Z,99824.73
2018-11-04T18:59:53.442Z,99813.91
2018-11-04T19:02:19.566Z,99817.59
2018-11-04T19:04:45.696Z,99819.03
2018-11-04T19:07:11.720Z,99821.39
2018-11-04T19:09:38.768Z,99818.55
2018-11-04T19:12:04.741Z,99818.45
2018-11-04T19:14:30.733Z,99817.37
2018-11-04T19:16:56.971Z,99814.71
2018-11-04T19:19:22.962Z,99816.20
2018-11-04T19:21:49.055Z,99822.13
2018-11-04T19:24:17.107Z,99822.93
2018-11-04T19:26:43.192Z,99816.94
2018-11-04T19:29:15.014Z,99815.30
2018-11-04T19:31:43.328Z,99807.52
2018-11-04T19:34:09.357Z,99802.06
2018-11-04T19:36:35.378Z,99802.98
2018-11-04T19:39:01.482Z,99797.84
2018-11-04T19:41:27.492Z,99799.90
2018-11-04T19:43:53.545Z,99797.63
2018-11-04T19:46:19.518Z,99806.15
2018-11-04T19:48:45.558Z,99803.34
2018-11-04T19:51:11.595Z,99806.08
2018-11-04T19:53:37.624Z,99807.23
2018-11-04T19:56:04.721Z,99809.97
2018-11-04T19:58:30.835Z,99805.98
2018-11-04T20:00:56.831Z,99804.36
2018-11-04T20:03:22.920Z,99809.00
2018-11-04T20:05:49.678Z,99802.50
2018-11-04T20:08:15.779Z,99797.65
2018-11-04T20:10:43.015Z,99812.48
2018-11-04T20:13:09.193Z,99810.45
2018-11-04T20:15:35.206Z,99805.11
2018-11-04T20:18:01.225Z,99810.97
2018-11-04T20:23:00.558Z,99806.01
2018-11-04T20:25:26.710Z,99800.14
2018-11-04T20:27:52.695Z,99797.17
2018-11-04T20:30:18.730Z,99789.48
2018-11-04T20:32:45.737Z,99789.95
2018-11-04T20:35:11.732Z,99787.98
2018-11-04T20:42:42.162Z,99779.93
2018-11-04T20:45:09.194Z,99781.26
2018-11-04T20:47:35.154Z,99779.13
2018-11-04T20:50:01.136Z,99781.69
2018-11-04T20:52:27.103Z,99775.67
2018-11-04T20:54:53.172Z,99778.23
2018-11-04T20:57:19.162Z,99774.91
2018-11-04T20:59:45.176Z,99771.41
2018-11-04T21:02:11.460Z,99776.09
2018-11-04T21:04:37.410Z,99750.17
2018-11-04T21:07:03.428Z,99765.94
2018-11-04T21:09:29.457Z,99757.56
2018-11-04T21:11:55.477Z,99763.02
2018-11-04T21:14:21.879Z,99763.48
2018-11-04T21:19:24.191Z,99753.12
2018-11-04T21:21:50.195Z,99756.16
2018-11-04T21:24:18.262Z,99759.91
2018-11-04T21:26:44.204Z,99751.25
2018-11-04T21:29:10.296Z,99752.33
2018-11-04T21:31:36.176Z,99751.41
2018-11-04T21:34:03.117Z,99747.41
2018-11-04T21:36:29.210Z,99734.33
2018-11-04T21:38:57.235Z,99732.47
2018-11-04T21:41:23.231Z,99727.06
2018-11-04T21:43:49.398Z,99725.78
2018-11-04T21:46:15.266Z,99725.30
2018-11-04T21:48:41.270Z,99730.02
2018-11-04T21:51:11.099Z,99731.92
2018-11-04T21:53:37.062Z,99731.83
2018-11-04T21:56:03.119Z,99726.58
2018-11-04T21:58:29.100Z,99733.23
2018-11-04T22:00:55.102Z,99724.25
2018-11-04T22:03:21.219Z,99724.08
2018-11-04T22:05:47.585Z,99732.45
2018-11-04T22:08:14.511Z,99732.77
2018-11-04T22:10:41.093Z,99724.10
2018-11-04T22:13:07.060Z,99713.33
2018-11-04T22:15:33.214Z,99723.09
2018-11-04T22:17:59.226Z,99732.84
2018-11-04T22:20:25.215Z,99731.67
2018-11-04T22:22:51.217Z,99734.56
2018-11-04T22:25:17.230Z,99724.61
2018-11-04T22:27:43.218Z,99726.63
2018-11-04T22:30:09.266Z,99726.13
2018-11-04T22:32:35.277Z,99729.86
2018-11-04T22:35:01.253Z,99729.75
2018-11-04T22:37:27.257Z,99732.05
2018-11-04T22:39:53.240Z,99736.76
2018-11-04T22:42:19.998Z,99727.55
2018-11-04T22:44:45.972Z,99726.98
2018-11-04T22:47:12.019Z,99707.39
2018-11-04T22:49:37.978Z,99703.25
2018-11-04T22:52:03.935Z,99699.52
2018-11-04T22:54:29.937Z,99694.27
2018-11-04T22:56:55.965Z,99696.20
2018-11-04T22:59:21.929Z,99706.51
2018-11-04T23:01:47.986Z,99708.09
2018-11-04T23:04:14.074Z,99699.06
2018-11-04T23:06:39.980Z,99686.75
2018-11-04T23:09:05.957Z,99684.36
2018-11-04T23:11:31.989Z,99692.67
2018-11-04T23:13:57.991Z,99696.88
2018-11-04T23:16:23.969Z,99688.87
2018-11-04T23:18:50.136Z,99681.05
2018-11-04T23:21:16.017Z,99682.95
2018-11-04T23:23:42.011Z,99671.01
2018-11-04T23:26:08.002Z,99675.38
2018-11-04T23:28:33.985Z,99680.61
2018-11-04T23:30:59.984Z,99688.48
2018-11-04T23:33:25.968Z,99688.74
2018-11-04T23:35:51.939Z,99681.98
2018-11-04T23:38:18.112Z,99686.13
2018-11-04T23:40:44.105Z,99676.47
2018-11-04T23:43:10.213Z,99674.55
2018-11-04T23:45:36.205Z,99675.59
2018-11-04T23:48:02.182Z,99685.59
2018-11-04T23:50:28.174Z,99672.67
2018-11-04T23:52:54.204Z,99668.52
2018-11-04T23:55:20.288Z,99664.37
2018-11-04T23:57:46.364Z,99659.77
